createdAt,value
2023-01-27T00:00:32.963Z,27.52
2023-01-27T00:06:01.442Z,27.55
2023-01-27T00:11:41.972Z,24.83
2023-01-27T00:17:07.024Z,24.05
2023-01-27T00:22:47.687Z,25.70
2023-01-27T00:28:23.020Z,30.75
2023-01-27T00:33:54.240Z,28.50
2023-01-27T00:39:23.132Z,25.92
2023-01-27T00:45:05.812Z,21.93
2023-01-27T00:50:36.054Z,18.67
2023-01-27T01:01:35.041Z,16.17
2023-01-27T01:07:04.429Z,16.50
2023-01-27T01:12:28.409Z,19.33
2023-01-27T01:17:52.417Z,32.53
2023-01-27T01:23:23.063Z,28.20
2023-01-27T01:28:51.916Z,25.52
2023-01-27T01:34:20.662Z,30.93
2023-01-27T01:39:51.227Z,39.95
2023-01-27T01:45:52.897Z,28.20
2023-01-27T01:51:25.923Z,21.58
2023-01-27T01:57:03.696Z,26.33
2023-01-27T02:02:34.945Z,22.90
2023-01-27T02:08:13.325Z,21.67
2023-01-27T02:13:44.326Z,22.13
2023-01-27T02:19:20.091Z,25.63
2023-01-27T02:24:54.288Z,24.60
2023-01-27T02:30:25.041Z,30.15
2023-01-27T02:36:02.057Z,25.52
2023-01-27T02:41:36.255Z,25.42
2023-01-27T02:47:06.336Z,25.88
2023-01-27T02:52:35.779Z,25.98
2023-01-27T02:58:04.822Z,25.33
2023-01-27T03:03:47.379Z,25.30
2023-01-27T03:09:20.866Z,28.17
2023-01-27T03:15:09.672Z,25.63
2023-01-27T03:20:40.835Z,29.42
2023-01-27T03:26:10.985Z,29.77
2023-01-27T03:31:43.622Z,44.85
2023-01-27T03:37:31.854Z,32.92
2023-01-27T03:43:18.120Z,26.13
2023-01-27T03:48:50.806Z,35.40
2023-01-27T03:54:21.223Z,37.78
2023-01-27T03:59:49.683Z,33.00
2023-01-27T04:05:35.828Z,41.10
2023-01-27T08:04:52.506Z,26.85
2023-01-27T08:10:18.920Z,28.33
2023-01-27T08:15:42.922Z,28.55
2023-01-27T08:21:11.556Z,34.10
2023-01-27T08:32:04.876Z,37.72
2023-01-27T08:37:35.310Z,39.20
2023-01-27T08:43:05.097Z,40.03
2023-01-27T08:48:34.716Z,38.30
2023-01-27T08:54:05.469Z,40.20
2023-01-27T08:59:35.177Z,37.55
2023-01-27T09:04:59.029Z,38.53
2023-01-27T09:10:26.866Z,36.13
2023-01-27T09:15:55.829Z,37.92
2023-01-27T09:21:18.936Z,40.88
2023-01-27T09:26:44.905Z,35.50
2023-01-27T09:32:12.527Z,38.40
2023-01-27T09:37:48.016Z,37.95
2023-01-27T09:43:35.684Z,37.45
2023-01-27T09:49:28.783Z,31.70
2023-01-27T09:55:04.427Z,32.55
2023-01-27T10:00:39.087Z,26.38
2023-01-27T10:06:28.165Z,27.05
2023-01-27T10:12:04.154Z,24.05
2023-01-27T10:17:48.042Z,26.60
2023-01-27T10:23:30.935Z,25.50
2023-01-27T10:29:09.691Z,24.27
2023-01-27T10:34:49.894Z,24.38
2023-01-27T10:40:27.292Z,24.40
2023-01-27T10:46:05.714Z,27.75
2023-01-27T10:51:41.376Z,29.95
2023-01-27T10:57:15.992Z,29.13
2023-01-27T11:02:52.977Z,28.25
2023-01-27T11:08:28.073Z,28.98
2023-01-27T11:14:04.842Z,26.08
2023-01-27T11:19:57.765Z,24.13
2023-01-27T11:25:35.584Z,22.15
2023-01-27T11:31:12.887Z,25.13
2023-01-27T11:36:41.811Z,22.13
2023-01-27T11:42:13.294Z,22.30
2023-01-27T11:47:44.386Z,20.98
2023-01-27T11:53:17.976Z,20.88
2023-01-27T11:58:52.752Z,19.42
2023-01-27T12:04:27.002Z,17.90
2023-01-27T12:09:56.054Z,19.95
2023-01-27T12:15:29.213Z,19.65
2023-01-27T12:21:01.273Z,16.73
2023-01-27T12:26:36.842Z,16.20
2023-01-27T12:32:16.184Z,15.52
2023-01-27T12:37:45.224Z,15.73
2023-01-27T12:43:16.069Z,15.50
2023-01-27T12:48:50.734Z,14.43
2023-01-27T12:54:23.437Z,13.68
2023-01-27T12:59:56.704Z,14.60
2023-01-27T17:08:35.512Z,20.08
2023-01-27T17:14:21.342Z,17.83
2023-01-27T17:19:56.642Z,15.88
2023-01-27T17:25:31.874Z,16.55
2023-01-27T17:31:07.520Z,14.25
2023-01-27T17:36:39.449Z,15.23
2023-01-27T17:42:05.125Z,14.23
2023-01-27T17:47:32.195Z,14.73
2023-01-27T17:53:03.698Z,14.30
2023-01-27T17:58:29.785Z,15.38
2023-01-27T18:03:58.629Z,13.30
2023-01-27T18:09:28.420Z,14.50
2023-01-27T18:14:59.753Z,14.00
2023-01-27T18:20:30.103Z,15.57
2023-01-27T18:26:04.919Z,13.77
2023-01-27T18:31:39.740Z,13.13
2023-01-27T18:37:26.201Z,14.98
2023-01-27T18:42:58.584Z,13.60
2023-01-27T18:48:23.493Z,13.25
2023-01-27T18:53:52.844Z,12.25
2023-01-27T18:59:25.950Z,13.07
2023-01-27T19:04:58.466Z,13.02
2023-01-27T19:10:43.441Z,12.32
2023-01-27T19:16:12.147Z,13.27
2023-01-27T19:21:43.046Z,12.32
2023-01-27T19:27:13.295Z,14.13
2023-01-27T19:32:42.438Z,13.73
2023-01-27T19:38:13.966Z,14.30
2023-01-27T19:43:42.773Z,14.23
2023-01-27T19:49:17.020Z,14.20
2023-01-27T19:54:47.000Z,13.35
2023-01-27T20:00:24.810Z,14.15
2023-01-27T20:05:53.565Z,14.43
2023-01-27T20:11:32.696Z,15.13
2023-01-27T20:17:01.657Z,16.17
2023-01-27T20:22:30.469Z,14.83
2023-01-27T20:28:03.517Z,14.97
2023-01-27T20:33:32.711Z,14.10
2023-01-27T20:39:01.896Z,14.53
2023-01-27T20:44:32.202Z,17.20
2023-01-27T20:50:01.545Z,16.70
2023-01-27T20:55:31.414Z,13.63
2023-01-27T21:01:09.789Z,17.75
2023-01-27T21:06:38.592Z,17.58
2023-01-27T21:12:08.012Z,16.88
2023-01-27T21:17:38.528Z,17.17
2023-01-27T21:23:07.537Z,14.90
2023-01-27T21:28:37.178Z,15.13
2023-01-27T21:34:10.258Z,17.17
2023-01-27T21:39:39.669Z,17.35
2023-01-27T21:45:18.223Z,17.23
2023-01-27T21:50:52.963Z,16.25
2023-01-27T21:56:23.802Z,17.90
2023-01-27T22:01:55.297Z,17.00
